Terminal Aerodrome Forecast
Issued by NWS Mt. Holly, NJ

Current Version | Previous Version | Text Only | Print | Product List | Glossary On
Versions: 1 2 3 4 5 6 7 8 9 10 11 12 13 14 15 16 17 18 19 20 21 22 23 24 25 26 27 28 29 30 31 32 33 34 35 36 37 38 39 40 41 42 43 44 45 46 47 48 49 50
000
FTAK31 PANC 271737
TAFABE
TAF
PABE 271737Z 2718/2818 31007KT P6SM OVC040
      TEMPO 2718/2720 3/4SM BR OVC002
     FM280300 20014KT P6SM -RA SCT020 OVC050
     FM280600 19012KT 6SM -RA BR SCT008 OVC015=

USA.gov is the U.S. government's official web portal to all federal, state and local government web resources and services.